sensor_id;sensor_type;location;lat;lon;timestamp;temperature;humidity
816;DHT22;25928;51.062;13.752;2023-03-01T00:01:23;1.10;1.00
816;DHT22;25928;51.062;13.752;2023-03-01T00:03:49;1.10;1.00
816;DHT22;25928;51.062;13.752;2023-03-01T00:06:15;1.10;1.00
816;DHT22;25928;51.062;13.752;2023-03-01T00:08:41;1.10;1.00
816;DHT22;25928;51.062;13.752;2023-03-01T00:11:13;1.10;1.00
816;DHT22;25928;51.062;13.752;2023-03-01T00:13:39;1.10;1.00
816;DHT22;25928;51.062;13.752;2023-03-01T00:16:07;1.10;1.00
816;DHT22;25928;51.062;13.752;2023-03-01T00:18:32;1.00;1.00
816;DHT22;25928;51.062;13.752;2023-03-01T00:20:59;1.00;1.00
816;DHT22;25928;51.062;13.752;2023-03-01T00:23:25;1.00;1.00
816;DHT22;25928;51.062;13.752;2023-03-01T00:25:52;1.10;1.00
816;DHT22;25928;51.062;13.752;2023-03-01T00:28:17;1.10;1.00
816;DHT22;25928;51.062;13.752;2023-03-01T00:30:44;1.00;1.00
816;DHT22;25928;51.062;13.752;2023-03-01T00:33:10;1.10;1.00
816;DHT22;25928;51.062;13.752;2023-03-01T00:35:35;1.10;1.00
816;DHT22;25928;51.062;13.752;2023-03-01T00:38:01;1.10;1.00
816;DHT22;25928;51.062;13.752;2023-03-01T00:40:29;1.00;1.00
816;DHT22;25928;51.062;13.752;2023-03-01T00:42:55;1.00;1.00
816;DHT22;25928;51.062;13.752;2023-03-01T00:45:21;0.90;1.00
816;DHT22;25928;51.062;13.752;2023-03-01T00:47:48;1.10;1.00
816;DHT22;25928;51.062;13.752;2023-03-01T00:50:14;1.00;1.00
816;DHT22;25928;51.062;13.752;2023-03-01T00:52:39;0.80;1.00
816;DHT22;25928;51.062;13.752;2023-03-01T00:55:06;0.70;1.00
816;DHT22;25928;51.062;13.752;2023-03-01T00:57:31;0.60;1.00
816;DHT22;25928;51.062;13.752;2023-03-01T00:59:57;0.60;1.00
816;DHT22;25928;51.062;13.752;2023-03-01T01:02:23;0.60;1.00
816;DHT22;25928;51.062;13.752;2023-03-01T01:04:49;0.60;1.00
816;DHT22;25928;51.062;13.752;2023-03-01T01:07:15;0.60;1.00
816;DHT22;25928;51.062;13.752;2023-03-01T01:09:41;0.60;1.00
816;DHT22;25928;51.062;13.752;2023-03-01T01:12:07;0.50;1.00
816;DHT22;25928;51.062;13.752;2023-03-01T01:14:33;0.60;1.00
816;DHT22;25928;51.062;13.752;2023-03-01T01:16:59;0.50;1.00
816;DHT22;25928;51.062;13.752;2023-03-01T01:19:25;0.50;1.00
816;DHT22;25928;51.062;13.752;2023-03-01T01:21:51;0.50;1.00
816;DHT22;25928;51.062;13.752;2023-03-01T01:24:18;0.40;1.00
816;DHT22;25928;51.062;13.752;2023-03-01T01:26:44;0.40;1.00
816;DHT22;25928;51.062;13.752;2023-03-01T01:29:10;0.40;1.00
816;DHT22;25928;51.062;13.752;2023-03-01T01:31:38;0.30;1.00
816;DHT22;25928;51.062;13.752;2023-03-01T01:34:07;0.30;1.00
816;DHT22;25928;51.062;13.752;2023-03-01T01:36:34;0.30;1.00
816;DHT22;25928;51.062;13.752;2023-03-01T01:39:00;0.30;1.00
816;DHT22;25928;51.062;13.752;2023-03-01T01:41:28;0.00;1.00
816;DHT22;25928;51.062;13.752;2023-03-01T01:44:16;0.30;1.00
816;DHT22;25928;51.062;13.752;2023-03-01T01:46:54;0.20;1.00
816;DHT22;25928;51.062;13.752;2023-03-01T01:49:46;0.30;1.00
816;DHT22;25928;51.062;13.752;2023-03-01T01:52:38;0.30;1.00
816;DHT22;25928;51.062;13.752;2023-03-01T01:55:13;0.30;1.00
816;DHT22;25928;51.062;13.752;2023-03-01T01:57:45;0.20;1.00
816;DHT22;25928;51.062;13.752;2023-03-01T02:00:21;0.20;1.00
816;DHT22;25928;51.062;13.752;2023-03-01T02:02:50;0.20;1.00
816;DHT22;25928;51.062;13.752;2023-03-01T02:08:01;0.10;1.00
816;DHT22;25928;51.062;13.752;2023-03-01T02:10:28;0.20;1.00
816;DHT22;25928;51.062;13.752;2023-03-01T02:12:54;0.20;1.00
816;DHT22;25928;51.062;13.752;2023-03-01T02:15:22;0.10;1.00
816;DHT22;25928;51.062;13.752;2023-03-01T02:17:48;0.10;1.00
816;DHT22;25928;51.062;13.752;2023-03-01T02:22:50;0.10;1.00
816;DHT22;25928;51.062;13.752;2023-03-01T02:30:25;0.00;1.00
816;DHT22;25928;51.062;13.752;2023-03-01T02:32:53;0.00;1.00
816;DHT22;25928;51.062;13.752;2023-03-01T02:35:21;-0.10;1.00
816;DHT22;25928;51.062;13.752;2023-03-01T02:37:46;-0.10;1.00
816;DHT22;25928;51.062;13.752;2023-03-01T02:40:18;0.00;1.00
816;DHT22;25928;51.062;13.752;2023-03-01T02:42:57;0.00;1.00
816;DHT22;25928;51.062;13.752;2023-03-01T02:45:24;-0.10;1.00
816;DHT22;25928;51.062;13.752;2023-03-01T02:47:53;0.00;1.00
816;DHT22;25928;51.062;13.752;2023-03-01T02:50:36;-0.10;1.00
816;DHT22;25928;51.062;13.752;2023-03-01T02:53:16;-0.10;1.00
816;DHT22;25928;51.062;13.752;2023-03-01T02:55:45;-0.10;1.00
816;DHT22;25928;51.062;13.752;2023-03-01T02:58:11;-0.10;1.00
816;DHT22;25928;51.062;13.752;2023-03-01T03:00:39;-0.10;1.00
816;DHT22;25928;51.062;13.752;2023-03-01T03:03:17;-0.10;1.00
816;DHT22;25928;51.062;13.752;2023-03-01T03:05:45;-0.10;1.00
816;DHT22;25928;51.062;13.752;2023-03-01T03:08:11;-0.10;1.00
816;DHT22;25928;51.062;13.752;2023-03-01T03:10:39;-0.20;1.00
816;DHT22;25928;51.062;13.752;2023-03-01T03:13:11;-0.10;1.00
816;DHT22;25928;51.062;13.752;2023-03-01T03:15:38;-0.20;1.00
816;DHT22;25928;51.062;13.752;2023-03-01T03:18:08;-0.20;1.00
816;DHT22;25928;51.062;13.752;2023-03-01T03:20:34;-0.30;1.00
816;DHT22;25928;51.062;13.752;2023-03-01T03:23:00;-0.20;1.00
816;DHT22;25928;51.062;13.752;2023-03-01T03:25:27;-0.30;1.00
816;DHT22;25928;51.062;13.752;2023-03-01T03:27:53;-0.30;1.00
816;DHT22;25928;51.062;13.752;2023-03-01T03:30:24;-0.30;1.00
816;DHT22;25928;51.062;13.752;2023-03-01T03:32:50;-0.30;1.00
816;DHT22;25928;51.062;13.752;2023-03-01T03:35:34;-0.40;1.00
816;DHT22;25928;51.062;13.752;2023-03-01T03:38:03;-0.40;1.00
816;DHT22;25928;51.062;13.752;2023-03-01T03:40:35;-0.40;1.00
816;DHT22;25928;51.062;13.752;2023-03-01T03:43:03;-0.50;1.00
816;DHT22;25928;51.062;13.752;2023-03-01T03:45:29;-0.50;1.00
816;DHT22;25928;51.062;13.752;2023-03-01T03:47:54;-0.50;1.00
816;DHT22;25928;51.062;13.752;2023-03-01T03:50:20;-0.60;1.00
816;DHT22;25928;51.062;13.752;2023-03-01T03:52:46;-0.60;1.00
816;DHT22;25928;51.062;13.752;2023-03-01T03:55:12;-0.50;1.00
816;DHT22;25928;51.062;13.752;2023-03-01T03:57:39;-0.60;1.00
816;DHT22;25928;51.062;13.752;2023-03-01T04:00:07;-0.60;1.00
816;DHT22;25928;51.062;13.752;2023-03-01T04:02:41;-0.60;1.00
816;DHT22;25928;51.062;13.752;2023-03-01T04:05:09;-0.60;1.00
816;DHT22;25928;51.062;13.752;2023-03-01T04:07:35;-0.60;1.00
816;DHT22;25928;51.062;13.752;2023-03-01T04:10:03;-0.60;1.00
816;DHT22;25928;51.062;13.752;2023-03-01T04:12:29;-0.70;1.00
816;DHT22;25928;51.062;13.752;2023-03-01T04:14:55;-0.70;1.00
816;DHT22;25928;51.062;13.752;2023-03-01T04:17:20;-0.70;1.00
816;DHT22;25928;51.062;13.752;2023-03-01T04:19:46;-0.70;1.00
816;DHT22;25928;51.062;13.752;2023-03-01T04:22:14;-0.80;1.00
816;DHT22;25928;51.062;13.752;2023-03-01T04:24:44;-0.80;1.00
816;DHT22;25928;51.062;13.752;2023-03-01T04:27:10;-0.80;1.00
816;DHT22;25928;51.062;13.752;2023-03-01T04:29:36;-0.80;1.00
816;DHT22;25928;51.062;13.752;2023-03-01T04:32:02;-0.80;1.00
816;DHT22;25928;51.062;13.752;2023-03-01T04:34:29;-0.80;1.00
816;DHT22;25928;51.062;13.752;2023-03-01T04:36:54;-0.80;1.00
816;DHT22;25928;51.062;13.752;2023-03-01T04:39:20;-0.80;1.00
816;DHT22;25928;51.062;13.752;2023-03-01T04:41:46;-0.80;1.00
816;DHT22;25928;51.062;13.752;2023-03-01T04:44:12;-0.90;1.00
816;DHT22;25928;51.062;13.752;2023-03-01T04:46:38;-0.90;1.00
816;DHT22;25928;51.062;13.752;2023-03-01T04:49:04;-0.90;1.00
816;DHT22;25928;51.062;13.752;2023-03-01T04:51:31;-1.00;1.00
816;DHT22;25928;51.062;13.752;2023-03-01T04:53:58;-1.00;1.00
816;DHT22;25928;51.062;13.752;2023-03-01T04:56:23;-1.00;1.00
816;DHT22;25928;51.062;13.752;2023-03-01T04:58:49;-1.00;1.00
816;DHT22;25928;51.062;13.752;2023-03-01T05:01:19;-1.00;1.00
816;DHT22;25928;51.062;13.752;2023-03-01T05:03:48;-1.00;1.00
816;DHT22;25928;51.062;13.752;2023-03-01T05:06:15;-1.00;1.00
816;DHT22;25928;51.062;13.752;2023-03-01T05:08:41;-1.00;1.00
816;DHT22;25928;51.062;13.752;2023-03-01T05:11:08;-1.10;1.00
816;DHT22;25928;51.062;13.752;2023-03-01T05:13:38;-1.20;1.00
816;DHT22;25928;51.062;13.752;2023-03-01T05:16:04;-1.20;1.00
816;DHT22;25928;51.062;13.752;2023-03-01T05:18:32;-1.20;1.00
816;DHT22;25928;51.062;13.752;2023-03-01T05:21:17;-1.10;1.00
816;DHT22;25928;51.062;13.752;2023-03-01T05:23:43;-1.10;1.00
816;DHT22;25928;51.062;13.752;2023-03-01T05:26:08;-1.10;1.00
816;DHT22;25928;51.062;13.752;2023-03-01T05:28:35;-1.10;1.00
816;DHT22;25928;51.062;13.752;2023-03-01T05:31:00;-1.10;1.00
816;DHT22;25928;51.062;13.752;2023-03-01T05:33:26;-1.10;1.00
816;DHT22;25928;51.062;13.752;2023-03-01T05:35:52;-1.10;1.00
816;DHT22;25928;51.062;13.752;2023-03-01T05:38:20;-1.10;1.00
816;DHT22;25928;51.062;13.752;2023-03-01T05:40:47;-1.10;1.00
816;DHT22;25928;51.062;13.752;2023-03-01T05:43:14;-1.10;1.00
816;DHT22;25928;51.062;13.752;2023-03-01T05:45:41;-1.10;1.00
816;DHT22;25928;51.062;13.752;2023-03-01T05:48:08;-1.10;1.00
816;DHT22;25928;51.062;13.752;2023-03-01T05:50:36;-1.10;1.00
816;DHT22;25928;51.062;13.752;2023-03-01T05:53:08;-1.10;1.00
816;DHT22;25928;51.062;13.752;2023-03-01T05:55:35;-1.20;1.00
816;DHT22;25928;51.062;13.752;2023-03-01T05:58:04;-1.10;1.00
816;DHT22;25928;51.062;13.752;2023-03-01T06:00:30;-1.20;1.00
816;DHT22;25928;51.062;13.752;2023-03-01T06:02:57;-1.20;1.00
816;DHT22;25928;51.062;13.752;2023-03-01T06:05:23;-1.20;1.00
816;DHT22;25928;51.062;13.752;2023-03-01T06:07:49;-1.20;1.00
816;DHT22;25928;51.062;13.752;2023-03-01T06:10:16;-1.10;1.00
816;DHT22;25928;51.062;13.752;2023-03-01T06:12:43;-1.10;1.00
816;DHT22;25928;51.062;13.752;2023-03-01T06:15:11;-1.10;1.00
816;DHT22;25928;51.062;13.752;2023-03-01T06:17:38;-1.10;1.00
816;DHT22;25928;51.062;13.752;2023-03-01T06:20:09;-1.10;1.00
816;DHT22;25928;51.062;13.752;2023-03-01T06:22:35;-1.10;1.00
816;DHT22;25928;51.062;13.752;2023-03-01T06:25:01;-1.10;1.00
816;DHT22;25928;51.062;13.752;2023-03-01T06:27:27;-1.10;1.00
816;DHT22;25928;51.062;13.752;2023-03-01T06:29:53;-1.00;1.00
816;DHT22;25928;51.062;13.752;2023-03-01T06:32:19;-1.00;1.00
816;DHT22;25928;51.062;13.752;2023-03-01T06:34:44;-1.00;1.00
816;DHT22;25928;51.062;13.752;2023-03-01T06:37:10;-0.90;1.00
816;DHT22;25928;51.062;13.752;2023-03-01T06:39:36;-0.90;1.00
816;DHT22;25928;51.062;13.752;2023-03-01T06:42:02;-0.80;1.00
816;DHT22;25928;51.062;13.752;2023-03-01T06:44:28;-0.80;1.00
816;DHT22;25928;51.062;13.752;2023-03-01T06:46:54;-0.80;1.00
816;DHT22;25928;51.062;13.752;2023-03-01T06:49:19;-0.70;1.00
816;DHT22;25928;51.062;13.752;2023-03-01T06:51:46;-0.70;1.00
816;DHT22;25928;51.062;13.752;2023-03-01T06:54:12;-0.70;1.00
816;DHT22;25928;51.062;13.752;2023-03-01T06:56:38;-0.60;1.00
816;DHT22;25928;51.062;13.752;2023-03-01T06:59:04;-0.60;1.00
816;DHT22;25928;51.062;13.752;2023-03-01T07:01:30;-0.50;1.00
816;DHT22;25928;51.062;13.752;2023-03-01T07:03:56;-0.50;1.00
816;DHT22;25928;51.062;13.752;2023-03-01T07:06:23;-0.40;1.00
816;DHT22;25928;51.062;13.752;2023-03-01T07:08:48;-0.30;1.00
816;DHT22;25928;51.062;13.752;2023-03-01T07:11:14;-0.30;1.00
816;DHT22;25928;51.062;13.752;2023-03-01T07:13:40;-0.30;1.00
816;DHT22;25928;51.062;13.752;2023-03-01T07:16:06;-0.30;1.00
816;DHT22;25928;51.062;13.752;2023-03-01T07:18:32;-0.30;1.00
816;DHT22;25928;51.062;13.752;2023-03-01T07:20:58;-0.10;1.00
816;DHT22;25928;51.062;13.752;2023-03-01T07:23:23;0.00;1.00
816;DHT22;25928;51.062;13.752;2023-03-01T07:25:53;0.00;1.00
816;DHT22;25928;51.062;13.752;2023-03-01T07:28:19;0.20;1.00
816;DHT22;25928;51.062;13.752;2023-03-01T07:30:45;0.20;1.00
816;DHT22;25928;51.062;13.752;2023-03-01T07:33:10;0.30;1.00
816;DHT22;25928;51.062;13.752;2023-03-01T07:35:36;0.40;1.00
816;DHT22;25928;51.062;13.752;2023-03-01T07:38:02;0.50;1.00
816;DHT22;25928;51.062;13.752;2023-03-01T07:40:27;0.60;1.00
816;DHT22;25928;51.062;13.752;2023-03-01T07:42:57;0.80;1.00
816;DHT22;25928;51.062;13.752;2023-03-01T07:45:23;1.10;1.00
816;DHT22;25928;51.062;13.752;2023-03-01T07:47:51;1.40;1.00
816;DHT22;25928;51.062;13.752;2023-03-01T07:50:17;1.70;1.00
816;DHT22;25928;51.062;13.752;2023-03-01T07:52:45;1.70;1.00
816;DHT22;25928;51.062;13.752;2023-03-01T07:55:11;1.70;1.00
816;DHT22;25928;51.062;13.752;2023-03-01T07:57:37;1.70;1.00
816;DHT22;25928;51.062;13.752;2023-03-01T08:00:03;1.70;1.00
816;DHT22;25928;51.062;13.752;2023-03-01T08:02:29;1.70;1.00
816;DHT22;25928;51.062;13.752;2023-03-01T08:04:55;1.90;1.00
816;DHT22;25928;51.062;13.752;2023-03-01T08:07:20;2.00;1.00
816;DHT22;25928;51.062;13.752;2023-03-01T08:09:46;2.20;1.00
816;DHT22;25928;51.062;13.752;2023-03-01T08:12:11;2.50;1.00
816;DHT22;25928;51.062;13.752;2023-03-01T08:14:37;2.80;1.00
816;DHT22;25928;51.062;13.752;2023-03-01T08:17:03;2.90;1.00
816;DHT22;25928;51.062;13.752;2023-03-01T08:19:28;3.10;1.00
816;DHT22;25928;51.062;13.752;2023-03-01T08:21:54;3.10;1.00
816;DHT22;25928;51.062;13.752;2023-03-01T08:24:23;2.80;1.00
816;DHT22;25928;51.062;13.752;2023-03-01T08:26:49;2.70;1.00
816;DHT22;25928;51.062;13.752;2023-03-01T08:29:14;2.70;1.00
816;DHT22;25928;51.062;13.752;2023-03-01T08:31:40;2.80;1.00
816;DHT22;25928;51.062;13.752;2023-03-01T08:34:09;2.90;1.00
816;DHT22;25928;51.062;13.752;2023-03-01T08:36:40;2.90;1.00
816;DHT22;25928;51.062;13.752;2023-03-01T08:39:07;2.90;1.00
816;DHT22;25928;51.062;13.752;2023-03-01T08:41:33;2.90;1.00
816;DHT22;25928;51.062;13.752;2023-03-01T08:43:59;3.00;1.00
816;DHT22;25928;51.062;13.752;2023-03-01T08:46:30;3.20;1.00
816;DHT22;25928;51.062;13.752;2023-03-01T08:48:56;3.20;1.00
816;DHT22;25928;51.062;13.752;2023-03-01T08:51:22;3.30;1.00
816;DHT22;25928;51.062;13.752;2023-03-01T08:53:48;3.40;1.00
816;DHT22;25928;51.062;13.752;2023-03-01T08:56:14;3.50;1.00
816;DHT22;25928;51.062;13.752;2023-03-01T08:58:44;3.50;1.00
816;DHT22;25928;51.062;13.752;2023-03-01T09:01:11;3.70;1.00
816;DHT22;25928;51.062;13.752;2023-03-01T09:03:37;3.80;1.00
816;DHT22;25928;51.062;13.752;2023-03-01T09:06:05;3.90;1.00
816;DHT22;25928;51.062;13.752;2023-03-01T09:08:37;4.10;1.00
816;DHT22;25928;51.062;13.752;2023-03-01T09:11:05;4.20;1.00
816;DHT22;25928;51.062;13.752;2023-03-01T09:13:31;4.10;1.00
816;DHT22;25928;51.062;13.752;2023-03-01T09:16:01;4.30;1.00
816;DHT22;25928;51.062;13.752;2023-03-01T09:18:28;4.40;1.00
816;DHT22;25928;51.062;13.752;2023-03-01T09:21:04;4.70;1.00
816;DHT22;25928;51.062;13.752;2023-03-01T09:23:38;4.90;1.00
816;DHT22;25928;51.062;13.752;2023-03-01T09:26:09;4.90;1.00
816;DHT22;25928;51.062;13.752;2023-03-01T09:28:36;4.90;1.00
816;DHT22;25928;51.062;13.752;2023-03-01T09:31:02;5.00;1.00
816;DHT22;25928;51.062;13.752;2023-03-01T09:33:29;5.10;1.00
816;DHT22;25928;51.062;13.752;2023-03-01T09:36:03;5.20;1.00
816;DHT22;25928;51.062;13.752;2023-03-01T09:38:30;5.50;1.00
816;DHT22;25928;51.062;13.752;2023-03-01T09:40:56;5.30;1.00
816;DHT22;25928;51.062;13.752;2023-03-01T09:46:00;5.40;1.00
816;DHT22;25928;51.062;13.752;2023-03-01T09:48:37;5.50;1.00
816;DHT22;25928;51.062;13.752;2023-03-01T09:51:12;5.60;1.00
816;DHT22;25928;51.062;13.752;2023-03-01T09:53:40;5.80;1.00
816;DHT22;25928;51.062;13.752;2023-03-01T09:59:03;6.10;1.00
816;DHT22;25928;51.062;13.752;2023-03-01T10:01:46;6.20;1.00
816;DHT22;25928;51.062;13.752;2023-03-01T10:09:37;6.50;1.00
816;DHT22;25928;51.062;13.752;2023-03-01T10:12:17;6.40;1.00
816;DHT22;25928;51.062;13.752;2023-03-01T10:17:42;6.50;1.00
816;DHT22;25928;51.062;13.752;2023-03-01T10:20:24;6.50;1.00
816;DHT22;25928;51.062;13.752;2023-03-01T10:22:51;6.60;1.00
816;DHT22;25928;51.062;13.752;2023-03-01T10:30:43;7.00;1.00
816;DHT22;25928;51.062;13.752;2023-03-01T10:33:24;7.30;1.00
816;DHT22;25928;51.062;13.752;2023-03-01T10:35:51;7.40;1.00
816;DHT22;25928;51.062;13.752;2023-03-01T10:38:19;7.50;1.00
816;DHT22;25928;51.062;13.752;2023-03-01T10:40:59;7.60;1.00
816;DHT22;25928;51.062;13.752;2023-03-01T10:43:45;7.70;1.00
816;DHT22;25928;51.062;13.752;2023-03-01T10:46:33;7.70;1.00
816;DHT22;25928;51.062;13.752;2023-03-01T10:49:20;7.70;1.00
816;DHT22;25928;51.062;13.752;2023-03-01T10:51:48;7.90;1.00
816;DHT22;25928;51.062;13.752;2023-03-01T10:54:17;7.90;1.00
816;DHT22;25928;51.062;13.752;2023-03-01T10:56:51;8.00;1.00
816;DHT22;25928;51.062;13.752;2023-03-01T10:59:41;7.90;1.00
816;DHT22;25928;51.062;13.752;2023-03-01T11:05:16;8.00;1.00
816;DHT22;25928;51.062;13.752;2023-03-01T11:07:49;8.10;1.00
816;DHT22;25928;51.062;13.752;2023-03-01T11:10:24;8.20;1.00
816;DHT22;25928;51.062;13.752;2023-03-01T11:12:54;8.20;1.00
816;DHT22;25928;51.062;13.752;2023-03-01T11:15:30;8.40;1.00
816;DHT22;25928;51.062;13.752;2023-03-01T11:17:56;8.50;1.00
816;DHT22;25928;51.062;13.752;2023-03-01T11:20:33;8.50;1.00
816;DHT22;25928;51.062;13.752;2023-03-01T11:23:04;8.50;1.00
816;DHT22;25928;51.062;13.752;2023-03-01T11:25:35;8.60;1.00
816;DHT22;25928;51.062;13.752;2023-03-01T11:28:03;8.60;1.00
816;DHT22;25928;51.062;13.752;2023-03-01T11:30:40;8.40;1.00
816;DHT22;25928;51.062;13.752;2023-03-01T11:38:35;8.10;1.00
816;DHT22;25928;51.062;13.752;2023-03-01T11:41:20;8.10;1.00
816;DHT22;25928;51.062;13.752;2023-03-01T11:44:10;8.00;1.00
816;DHT22;25928;51.062;13.752;2023-03-01T11:55:11;8.50;1.00
816;DHT22;25928;51.062;13.752;2023-03-01T12:06:19;8.50;1.00
816;DHT22;25928;51.062;13.752;2023-03-01T12:08:45;8.50;1.00
816;DHT22;25928;51.062;13.752;2023-03-01T12:14:17;8.60;1.00
816;DHT22;25928;51.062;13.752;2023-03-01T12:17:20;8.40;1.00
816;DHT22;25928;51.062;13.752;2023-03-01T12:20:02;8.30;1.00
816;DHT22;25928;51.062;13.752;2023-03-01T12:23:37;8.00;1.00
816;DHT22;25928;51.062;13.752;2023-03-01T12:25:39;7.70;1.00
816;DHT22;25928;51.062;13.752;2023-03-01T12:45:03;8.60;1.00
816;DHT22;25928;51.062;13.752;2023-03-01T12:50:23;8.90;1.00
816;DHT22;25928;51.062;13.752;2023-03-01T12:52:52;9.10;1.00
816;DHT22;25928;51.062;13.752;2023-03-01T12:55:34;8.90;1.00
816;DHT22;25928;51.062;13.752;2023-03-01T13:01:26;8.70;1.00
816;DHT22;25928;51.062;13.752;2023-03-01T13:09:34;8.10;1.00
816;DHT22;25928;51.062;13.752;2023-03-01T13:12:03;8.00;1.00
816;DHT22;25928;51.062;13.752;2023-03-01T13:16:57;8.30;1.00
816;DHT22;25928;51.062;13.752;2023-03-01T13:19:29;8.40;1.00
816;DHT22;25928;51.062;13.752;2023-03-01T13:21:56;8.40;1.00
816;DHT22;25928;51.062;13.752;2023-03-01T13:32:33;8.60;1.00
816;DHT22;25928;51.062;13.752;2023-03-01T13:37:37;8.90;1.00
816;DHT22;25928;51.062;13.752;2023-03-01T13:42:50;8.80;1.00
816;DHT22;25928;51.062;13.752;2023-03-01T13:48:20;8.80;1.00
816;DHT22;25928;51.062;13.752;2023-03-01T13:51:22;8.60;1.00
816;DHT22;25928;51.062;13.752;2023-03-01T13:53:44;9.10;1.00
816;DHT22;25928;51.062;13.752;2023-03-01T13:56:17;8.30;1.00
816;DHT22;25928;51.062;13.752;2023-03-01T13:58:53;8.40;1.00
816;DHT22;25928;51.062;13.752;2023-03-01T14:01:27;8.50;1.00
816;DHT22;25928;51.062;13.752;2023-03-01T14:03:53;8.70;1.00
816;DHT22;25928;51.062;13.752;2023-03-01T14:06:27;8.70;1.00
816;DHT22;25928;51.062;13.752;2023-03-01T14:11:48;8.60;1.00
816;DHT22;25928;51.062;13.752;2023-03-01T14:17:42;8.60;1.00
816;DHT22;25928;51.062;13.752;2023-03-01T14:20:25;8.50;1.00
816;DHT22;25928;51.062;13.752;2023-03-01T14:22:59;8.20;1.00
816;DHT22;25928;51.062;13.752;2023-03-01T14:25:31;8.20;1.00
816;DHT22;25928;51.062;13.752;2023-03-01T14:28:04;8.20;1.00
816;DHT22;25928;51.062;13.752;2023-03-01T14:30:34;8.30;1.00
816;DHT22;25928;51.062;13.752;2023-03-01T14:33:04;8.40;1.00
816;DHT22;25928;51.062;13.752;2023-03-01T14:35:34;8.10;1.00
816;DHT22;25928;51.062;13.752;2023-03-01T14:38:00;7.90;1.00
816;DHT22;25928;51.062;13.752;2023-03-01T14:40:32;7.70;1.00
816;DHT22;25928;51.062;13.752;2023-03-01T14:43:00;7.60;1.00
816;DHT22;25928;51.062;13.752;2023-03-01T14:45:28;7.70;1.00
816;DHT22;25928;51.062;13.752;2023-03-01T14:47:55;7.80;1.00
816;DHT22;25928;51.062;13.752;2023-03-01T14:52:52;7.90;1.00
816;DHT22;25928;51.062;13.752;2023-03-01T14:55:30;7.90;1.00
816;DHT22;25928;51.062;13.752;2023-03-01T14:57:57;7.90;1.00
816;DHT22;25928;51.062;13.752;2023-03-01T15:00:28;7.90;1.00
816;DHT22;25928;51.062;13.752;2023-03-01T15:02:56;7.90;1.00
816;DHT22;25928;51.062;13.752;2023-03-01T15:05:31;7.80;1.00
816;DHT22;25928;51.062;13.752;2023-03-01T15:07:59;7.80;1.00
816;DHT22;25928;51.062;13.752;2023-03-01T15:10:34;7.80;1.00
816;DHT22;25928;51.062;13.752;2023-03-01T15:15:40;7.70;1.00
816;DHT22;25928;51.062;13.752;2023-03-01T15:18:18;7.70;1.00
816;DHT22;25928;51.062;13.752;2023-03-01T15:20:45;7.60;1.00
816;DHT22;25928;51.062;13.752;2023-03-01T15:25:44;7.60;1.00
816;DHT22;25928;51.062;13.752;2023-03-01T15:28:19;7.80;1.00
816;DHT22;25928;51.062;13.752;2023-03-01T15:30:46;8.70;1.00
816;DHT22;25928;51.062;13.752;2023-03-01T15:35:46;10.90;1.00
816;DHT22;25928;51.062;13.752;2023-03-01T15:41:28;12.30;1.00
816;DHT22;25928;51.062;13.752;2023-03-01T15:43:56;12.60;1.00
816;DHT22;25928;51.062;13.752;2023-03-01T15:46:32;12.70;1.00
816;DHT22;25928;51.062;13.752;2023-03-01T15:49:01;12.40;1.00
816;DHT22;25928;51.062;13.752;2023-03-01T15:51:36;12.30;99.90
816;DHT22;25928;51.062;13.752;2023-03-01T15:54:06;12.50;99.90
816;DHT22;25928;51.062;13.752;2023-03-01T15:56:36;12.80;1.00
816;DHT22;25928;51.062;13.752;2023-03-01T15:59:02;13.20;1.00
816;DHT22;25928;51.062;13.752;2023-03-01T16:01:28;13.10;1.00
816;DHT22;25928;51.062;13.752;2023-03-01T16:03:54;13.20;1.00
816;DHT22;25928;51.062;13.752;2023-03-01T16:06:20;12.90;1.00
816;DHT22;25928;51.062;13.752;2023-03-01T16:08:45;12.60;1.00
816;DHT22;25928;51.062;13.752;2023-03-01T16:11:15;12.30;1.00
816;DHT22;25928;51.062;13.752;2023-03-01T16:13:41;11.90;1.00
816;DHT22;25928;51.062;13.752;2023-03-01T16:16:09;11.50;1.00
816;DHT22;25928;51.062;13.752;2023-03-01T16:18:40;11.30;1.00
816;DHT22;25928;51.062;13.752;2023-03-01T16:21:06;11.30;1.00
816;DHT22;25928;51.062;13.752;2023-03-01T16:23:31;11.00;99.90
816;DHT22;25928;51.062;13.752;2023-03-01T16:26:00;10.50;1.00
816;DHT22;25928;51.062;13.752;2023-03-01T16:28:26;10.40;1.00
816;DHT22;25928;51.062;13.752;2023-03-01T16:30:52;10.30;1.00
816;DHT22;25928;51.062;13.752;2023-03-01T16:33:18;10.00;1.00
816;DHT22;25928;51.062;13.752;2023-03-01T16:35:43;9.50;1.00
816;DHT22;25928;51.062;13.752;2023-03-01T16:38:10;8.90;1.00
816;DHT22;25928;51.062;13.752;2023-03-01T16:40:36;8.40;99.90
816;DHT22;25928;51.062;13.752;2023-03-01T16:43:01;8.00;1.00
816;DHT22;25928;51.062;13.752;2023-03-01T16:45:32;7.70;1.00
816;DHT22;25928;51.062;13.752;2023-03-01T16:47:59;7.30;1.00
816;DHT22;25928;51.062;13.752;2023-03-01T16:50:24;7.20;1.00
816;DHT22;25928;51.062;13.752;2023-03-01T16:52:50;7.00;1.00
816;DHT22;25928;51.062;13.752;2023-03-01T16:55:16;6.80;1.00
816;DHT22;25928;51.062;13.752;2023-03-01T16:57:42;6.70;1.00
816;DHT22;25928;51.062;13.752;2023-03-01T17:00:10;6.50;1.00
816;DHT22;25928;51.062;13.752;2023-03-01T17:02:38;6.40;1.00
816;DHT22;25928;51.062;13.752;2023-03-01T17:05:04;6.30;1.00
816;DHT22;25928;51.062;13.752;2023-03-01T17:07:31;6.20;1.00
816;DHT22;25928;51.062;13.752;2023-03-01T17:10:05;6.20;1.00
816;DHT22;25928;51.062;13.752;2023-03-01T17:12:31;6.10;1.00
816;DHT22;25928;51.062;13.752;2023-03-01T17:14:58;6.10;1.00
816;DHT22;25928;51.062;13.752;2023-03-01T17:17:23;6.10;1.00
816;DHT22;25928;51.062;13.752;2023-03-01T17:19:50;6.00;1.00
816;DHT22;25928;51.062;13.752;2023-03-01T17:22:16;6.00;1.00
816;DHT22;25928;51.062;13.752;2023-03-01T17:24:42;5.90;1.00
816;DHT22;25928;51.062;13.752;2023-03-01T17:27:09;6.10;1.00
816;DHT22;25928;51.062;13.752;2023-03-01T17:29:37;5.80;1.00
816;DHT22;25928;51.062;13.752;2023-03-01T17:32:03;5.80;1.00
816;DHT22;25928;51.062;13.752;2023-03-01T17:34:30;5.70;1.00
816;DHT22;25928;51.062;13.752;2023-03-01T17:36:57;5.70;1.00
816;DHT22;25928;51.062;13.752;2023-03-01T17:39:22;5.60;1.00
816;DHT22;25928;51.062;13.752;2023-03-01T17:41:56;5.50;1.00
816;DHT22;25928;51.062;13.752;2023-03-01T17:44:22;5.50;1.00
816;DHT22;25928;51.062;13.752;2023-03-01T17:46:47;5.50;1.00
816;DHT22;25928;51.062;13.752;2023-03-01T17:49:13;5.40;1.00
816;DHT22;25928;51.062;13.752;2023-03-01T17:51:39;5.40;1.00
816;DHT22;25928;51.062;13.752;2023-03-01T17:54:05;5.40;1.00
816;DHT22;25928;51.062;13.752;2023-03-01T17:56:30;5.30;1.00
816;DHT22;25928;51.062;13.752;2023-03-01T17:58:59;5.20;1.00
816;DHT22;25928;51.062;13.752;2023-03-01T18:01:25;5.30;1.00
816;DHT22;25928;51.062;13.752;2023-03-01T18:03:52;5.20;1.00
816;DHT22;25928;51.062;13.752;2023-03-01T18:06:23;5.20;1.00
816;DHT22;25928;51.062;13.752;2023-03-01T18:08:50;5.00;1.00
816;DHT22;25928;51.062;13.752;2023-03-01T18:11:17;5.00;1.00
816;DHT22;25928;51.062;13.752;2023-03-01T18:13:43;4.90;1.00
816;DHT22;25928;51.062;13.752;2023-03-01T18:16:15;4.80;1.00
816;DHT22;25928;51.062;13.752;2023-03-01T18:18:41;4.80;1.00
816;DHT22;25928;51.062;13.752;2023-03-01T18:21:07;4.70;1.00
816;DHT22;25928;51.062;13.752;2023-03-01T18:23:34;4.60;1.00
816;DHT22;25928;51.062;13.752;2023-03-01T18:26:09;4.50;1.00
816;DHT22;25928;51.062;13.752;2023-03-01T18:28:36;4.60;1.00